sensor_id;sensor_type;location;lat;lon;timestamp;pressure;altitude;pressure_sealevel;temperature;humidity
18014;BME280;9132;47.946;10.394;2023-10-13T00:00:21;94289.31;;;18.48;54.85
18014;BME280;9132;47.946;10.394;2023-10-13T00:02:55;94298.59;;;18.46;54.50
18014;BME280;9132;47.946;10.394;2023-10-13T00:05:27;94290.59;;;18.46;54.33
18014;BME280;9132;47.946;10.394;2023-10-13T00:07:54;94289.19;;;18.43;55.08
18014;BME280;9132;47.946;10.394;2023-10-13T00:10:20;94283.78;;;18.38;56.00
18014;BME280;9132;47.946;10.394;2023-10-13T00:12:47;94284.81;;;18.37;56.60
18014;BME280;9132;47.946;10.394;2023-10-13T00:15:16;94283.09;;;18.31;58.06
18014;BME280;9132;47.946;10.394;2023-10-13T00:17:53;94282.69;;;18.22;58.18
18014;BME280;9132;47.946;10.394;2023-10-13T00:20:20;94273.97;;;18.15;58.96
18014;BME280;9132;47.946;10.394;2023-10-13T00:23:02;94274.13;;;18.09;57.02
18014;BME280;9132;47.946;10.394;2023-10-13T00:25:29;94271.59;;;18.02;57.30
18014;BME280;9132;47.946;10.394;2023-10-13T00:28:08;94284.25;;;17.95;58.17
18014;BME280;9132;47.946;10.394;2023-10-13T00:30:35;94275.34;;;17.89;59.22
18014;BME280;9132;47.946;10.394;2023-10-13T00:33:03;94273.84;;;17.81;59.98
18014;BME280;9132;47.946;10.394;2023-10-13T00:35:29;94264.56;;;17.72;62.01
18014;BME280;9132;47.946;10.394;2023-10-13T00:38:04;94264.56;;;17.60;62.41
18014;BME280;9132;47.946;10.394;2023-10-13T00:40:38;94262.72;;;17.49;60.98
18014;BME280;9132;47.946;10.394;2023-10-13T00:43:08;94263.66;;;17.43;63.12
18014;BME280;9132;47.946;10.394;2023-10-13T00:45:53;94265.63;;;17.36;61.93
18014;BME280;9132;47.946;10.394;2023-10-13T00:48:23;94264.25;;;17.33;61.34
18014;BME280;9132;47.946;10.394;2023-10-13T00:50:56;94262.28;;;17.29;62.90
18014;BME280;9132;47.946;10.394;2023-10-13T00:53:25;94267.03;;;17.27;60.54
18014;BME280;9132;47.946;10.394;2023-10-13T00:55:53;94272.34;;;17.27;61.39
18014;BME280;9132;47.946;10.394;2023-10-13T00:58:22;94265.41;;;17.26;62.19
18014;BME280;9132;47.946;10.394;2023-10-13T01:00:49;94267.94;;;17.21;61.95
18014;BME280;9132;47.946;10.394;2023-10-13T01:03:22;94267.03;;;17.15;63.71
18014;BME280;9132;47.946;10.394;2023-10-13T01:05:52;94265.88;;;17.11;63.81
18014;BME280;9132;47.946;10.394;2023-10-13T01:08:32;94278.50;;;17.04;64.43
18014;BME280;9132;47.946;10.394;2023-10-13T01:11:03;94272.69;;;16.95;64.78
18014;BME280;9132;47.946;10.394;2023-10-13T01:13:32;94269.09;;;16.89;63.76
18014;BME280;9132;47.946;10.394;2023-10-13T01:16:01;94271.19;;;16.87;65.27
18014;BME280;9132;47.946;10.394;2023-10-13T01:18:27;94256.88;;;16.70;67.19
18014;BME280;9132;47.946;10.394;2023-10-13T01:20:53;94260.69;;;16.62;67.34
18014;BME280;9132;47.946;10.394;2023-10-13T01:23:26;94257.63;;;16.47;68.01
18014;BME280;9132;47.946;10.394;2023-10-13T01:25:54;94263.16;;;16.45;67.29
18014;BME280;9132;47.946;10.394;2023-10-13T01:28:21;94259.50;;;16.47;67.29
18014;BME280;9132;47.946;10.394;2023-10-13T01:30:47;94253.81;;;16.43;68.05
18014;BME280;9132;47.946;10.394;2023-10-13T01:33:16;94257.84;;;16.45;67.41
18014;BME280;9132;47.946;10.394;2023-10-13T01:35:41;94250.91;;;16.44;68.34
18014;BME280;9132;47.946;10.394;2023-10-13T01:38:13;94249.03;;;16.45;67.36
18014;BME280;9132;47.946;10.394;2023-10-13T01:40:41;94259.00;;;16.38;69.94
18014;BME280;9132;47.946;10.394;2023-10-13T01:43:08;94255.63;;;16.31;69.40
18014;BME280;9132;47.946;10.394;2023-10-13T01:45:36;94250.41;;;16.24;70.15
18014;BME280;9132;47.946;10.394;2023-10-13T01:48:04;94250.47;;;16.17;70.26
18014;BME280;9132;47.946;10.394;2023-10-13T01:50:35;94245.00;;;16.12;68.65
18014;BME280;9132;47.946;10.394;2023-10-13T01:53:01;94243.84;;;16.08;69.41
18014;BME280;9132;47.946;10.394;2023-10-13T01:55:38;94244.66;;;16.09;69.66
18014;BME280;9132;47.946;10.394;2023-10-13T01:58:09;94243.84;;;16.08;69.80
18014;BME280;9132;47.946;10.394;2023-10-13T02:00:41;94241.63;;;16.05;71.79
18014;BME280;9132;47.946;10.394;2023-10-13T02:03:08;94248.88;;;15.98;71.45
18014;BME280;9132;47.946;10.394;2023-10-13T02:05:41;94248.50;;;15.94;71.32
18014;BME280;9132;47.946;10.394;2023-10-13T02:08:12;94243.66;;;15.91;70.35
18014;BME280;9132;47.946;10.394;2023-10-13T02:10:43;94242.47;;;15.87;70.69
18014;BME280;9132;47.946;10.394;2023-10-13T02:13:13;94241.97;;;15.79;73.00
18014;BME280;9132;47.946;10.394;2023-10-13T02:15:42;94228.91;;;15.77;70.51
18014;BME280;9132;47.946;10.394;2023-10-13T02:18:09;94241.75;;;15.80;72.25
18014;BME280;9132;47.946;10.394;2023-10-13T02:20:36;94245.31;;;15.74;74.09
18014;BME280;9132;47.946;10.394;2023-10-13T02:23:07;94243.53;;;15.68;75.02
18014;BME280;9132;47.946;10.394;2023-10-13T02:25:36;94242.63;;;15.56;76.21
18014;BME280;9132;47.946;10.394;2023-10-13T02:28:08;94247.22;;;15.48;76.80
18014;BME280;9132;47.946;10.394;2023-10-13T02:30:39;94249.53;;;15.38;77.04
18014;BME280;9132;47.946;10.394;2023-10-13T02:33:12;94249.63;;;15.32;78.36
18014;BME280;9132;47.946;10.394;2023-10-13T02:35:40;94245.19;;;15.25;77.80
18014;BME280;9132;47.946;10.394;2023-10-13T02:38:15;94258.72;;;15.24;78.15
18014;BME280;9132;47.946;10.394;2023-10-13T02:40:51;94256.56;;;15.14;78.82
18014;BME280;9132;47.946;10.394;2023-10-13T02:43:19;94254.97;;;15.06;80.28
18014;BME280;9132;47.946;10.394;2023-10-13T02:45:53;94253.84;;;14.96;81.05
18014;BME280;9132;47.946;10.394;2023-10-13T02:48:24;94260.72;;;14.78;82.15
18014;BME280;9132;47.946;10.394;2023-10-13T02:50:57;94253.69;;;14.66;82.96
18014;BME280;9132;47.946;10.394;2023-10-13T02:53:23;94250.94;;;14.54;83.63
18014;BME280;9132;47.946;10.394;2023-10-13T02:55:54;94249.53;;;14.45;84.32
18014;BME280;9132;47.946;10.394;2023-10-13T02:58:21;94245.91;;;14.39;84.58
18014;BME280;9132;47.946;10.394;2023-10-13T03:00:47;94243.28;;;14.32;85.43
18014;BME280;9132;47.946;10.394;2023-10-13T03:03:14;94248.41;;;14.27;85.45
18014;BME280;9132;47.946;10.394;2023-10-13T03:05:44;94246.03;;;14.19;85.65
18014;BME280;9132;47.946;10.394;2023-10-13T03:08:10;94243.59;;;14.18;85.35
18014;BME280;9132;47.946;10.394;2023-10-13T03:10:42;94249.94;;;14.17;85.53
18014;BME280;9132;47.946;10.394;2023-10-13T03:13:12;94251.53;;;14.18;84.49
18014;BME280;9132;47.946;10.394;2023-10-13T03:15:39;94244.78;;;14.22;84.28
18014;BME280;9132;47.946;10.394;2023-10-13T03:18:04;94241.91;;;14.23;84.68
18014;BME280;9132;47.946;10.394;2023-10-13T03:20:32;94247.22;;;14.23;84.00
18014;BME280;9132;47.946;10.394;2023-10-13T03:22:58;94252.72;;;14.22;84.12
18014;BME280;9132;47.946;10.394;2023-10-13T03:25:25;94243.16;;;14.21;84.94
18014;BME280;9132;47.946;10.394;2023-10-13T03:27:55;94241.75;;;14.18;85.02
18014;BME280;9132;47.946;10.394;2023-10-13T03:30:30;94247.03;;;14.18;84.94
18014;BME280;9132;47.946;10.394;2023-10-13T03:33:02;94238.13;;;14.12;84.62
18014;BME280;9132;47.946;10.394;2023-10-13T03:35:33;94240.97;;;14.11;85.88
18014;BME280;9132;47.946;10.394;2023-10-13T03:38:04;94239.78;;;14.07;85.30
18014;BME280;9132;47.946;10.394;2023-10-13T03:40:36;94244.47;;;14.05;85.60
18014;BME280;9132;47.946;10.394;2023-10-13T03:43:04;94234.72;;;13.99;85.87
18014;BME280;9132;47.946;10.394;2023-10-13T03:45:32;94228.81;;;13.97;85.01
18014;BME280;9132;47.946;10.394;2023-10-13T03:48:03;94230.63;;;13.96;85.00
18014;BME280;9132;47.946;10.394;2023-10-13T03:50:35;94228.41;;;14.00;84.22
18014;BME280;9132;47.946;10.394;2023-10-13T03:53:03;94223.47;;;14.03;83.83
18014;BME280;9132;47.946;10.394;2023-10-13T03:55:31;94219.78;;;14.04;84.35
18014;BME280;9132;47.946;10.394;2023-10-13T03:58:00;94217.53;;;14.08;83.78
18014;BME280;9132;47.946;10.394;2023-10-13T04:00:28;94212.44;;;14.06;84.18
18014;BME280;9132;47.946;10.394;2023-10-13T04:02:57;94207.34;;;14.05;84.61
18014;BME280;9132;47.946;10.394;2023-10-13T04:05:36;94214.09;;;14.01;84.21
18014;BME280;9132;47.946;10.394;2023-10-13T04:08:07;94209.22;;;13.98;84.30
18014;BME280;9132;47.946;10.394;2023-10-13T04:11:02;94217.19;;;13.98;83.83
18014;BME280;9132;47.946;10.394;2023-10-13T04:13:47;94213.88;;;14.02;83.49
18014;BME280;9132;47.946;10.394;2023-10-13T04:16:30;94209.84;;;14.00;84.00
18014;BME280;9132;47.946;10.394;2023-10-13T04:19:05;94202.88;;;13.99;84.04
18014;BME280;9132;47.946;10.394;2023-10-13T04:21:37;94208.63;;;13.96;84.36
18014;BME280;9132;47.946;10.394;2023-10-13T04:24:20;94203.16;;;13.90;84.46
18014;BME280;9132;47.946;10.394;2023-10-13T04:26:53;94196.00;;;13.91;84.09
18014;BME280;9132;47.946;10.394;2023-10-13T04:29:39;94198.47;;;13.86;84.67
18014;BME280;9132;47.946;10.394;2023-10-13T04:32:18;94192.59;;;13.77;85.67
18014;BME280;9132;47.946;10.394;2023-10-13T04:34:54;94196.31;;;13.70;85.33
18014;BME280;9132;47.946;10.394;2023-10-13T04:37:24;94196.13;;;13.64;85.90
18014;BME280;9132;47.946;10.394;2023-10-13T04:39:55;94195.34;;;13.57;85.97
18014;BME280;9132;47.946;10.394;2023-10-13T04:42:25;94193.34;;;13.53;86.32
18014;BME280;9132;47.946;10.394;2023-10-13T04:45:15;94188.06;;;13.46;87.03
18014;BME280;9132;47.946;10.394;2023-10-13T04:48:04;94184.81;;;13.44;87.07
18014;BME280;9132;47.946;10.394;2023-10-13T04:50:44;94185.44;;;13.39;86.74
18014;BME280;9132;47.946;10.394;2023-10-13T04:53:13;94177.50;;;13.33;86.71
18014;BME280;9132;47.946;10.394;2023-10-13T04:55:54;94175.28;;;13.30;87.22
18014;BME280;9132;47.946;10.394;2023-10-13T04:58:33;94172.03;;;13.21;87.45
18014;BME280;9132;47.946;10.394;2023-10-13T05:01:20;94176.50;;;13.20;86.83
18014;BME280;9132;47.946;10.394;2023-10-13T05:04:25;94172.84;;;13.21;87.50
18014;BME280;9132;47.946;10.394;2023-10-13T05:07:04;94172.03;;;13.21;86.99
18014;BME280;9132;47.946;10.394;2023-10-13T05:09:49;94169.81;;;13.18;87.22
18014;BME280;9132;47.946;10.394;2023-10-13T05:12:33;94178.19;;;13.15;87.13
18014;BME280;9132;47.946;10.394;2023-10-13T05:15:18;94167.78;;;13.13;87.47
18014;BME280;9132;47.946;10.394;2023-10-13T05:18:02;94169.81;;;13.11;87.11
18014;BME280;9132;47.946;10.394;2023-10-13T05:20:46;94177.34;;;13.08;87.78
18014;BME280;9132;47.946;10.394;2023-10-13T05:23:30;94173.72;;;13.09;87.91
18014;BME280;9132;47.946;10.394;2023-10-13T05:26:15;94176.56;;;13.07;87.57
18014;BME280;9132;47.946;10.394;2023-10-13T05:28:59;94182.06;;;13.06;87.36
18014;BME280;9132;47.946;10.394;2023-10-13T05:31:43;94182.50;;;13.03;87.50
18014;BME280;9132;47.946;10.394;2023-10-13T05:34:27;94180.25;;;12.99;87.57
18014;BME280;9132;47.946;10.394;2023-10-13T05:37:11;94179.84;;;12.96;87.64
18014;BME280;9132;47.946;10.394;2023-10-13T05:39:55;94184.13;;;12.97;87.67
18014;BME280;9132;47.946;10.394;2023-10-13T05:42:40;94184.53;;;12.94;87.46
18014;BME280;9132;47.946;10.394;2023-10-13T05:45:35;94187.19;;;12.94;88.00
18014;BME280;9132;47.946;10.394;2023-10-13T05:48:26;94188.81;;;12.95;87.84
18014;BME280;9132;47.946;10.394;2023-10-13T05:51:07;94187.81;;;12.96;87.63
18014;BME280;9132;47.946;10.394;2023-10-13T05:53:51;94190.63;;;13.01;87.41
18014;BME280;9132;47.946;10.394;2023-10-13T05:56:35;94180.22;;;13.06;86.44
18014;BME280;9132;47.946;10.394;2023-10-13T05:59:21;94181.66;;;13.09;86.46
18014;BME280;9132;47.946;10.394;2023-10-13T06:02:05;94190.81;;;13.13;86.04
18014;BME280;9132;47.946;10.394;2023-10-13T06:05:01;94187.34;;;13.12;86.25
18014;BME280;9132;47.946;10.394;2023-10-13T06:07:45;94190.78;;;13.19;86.46
18014;BME280;9132;47.946;10.394;2023-10-13T06:10:29;94190.16;;;13.24;85.94
18014;BME280;9132;47.946;10.394;2023-10-13T06:13:13;94185.28;;;13.28;86.32
18014;BME280;9132;47.946;10.394;2023-10-13T06:15:59;94185.84;;;13.43;85.54
18014;BME280;9132;47.946;10.394;2023-10-13T06:18:43;94185.41;;;13.46;84.92
18014;BME280;9132;47.946;10.394;2023-10-13T06:21:27;94180.28;;;13.51;84.81
18014;BME280;9132;47.946;10.394;2023-10-13T06:24:11;94180.69;;;13.55;84.62
18014;BME280;9132;47.946;10.394;2023-10-13T06:26:54;94179.44;;;13.57;84.79
18014;BME280;9132;47.946;10.394;2023-10-13T06:29:38;94186.97;;;13.60;84.19
18014;BME280;9132;47.946;10.394;2023-10-13T06:32:07;94183.28;;;13.61;84.26
18014;BME280;9132;47.946;10.394;2023-10-13T06:34:36;94191.63;;;13.65;85.33
18014;BME280;9132;47.946;10.394;2023-10-13T06:37:07;94177.16;;;13.67;84.00
18014;BME280;9132;47.946;10.394;2023-10-13T06:39:48;94180.59;;;13.68;84.34
18014;BME280;9132;47.946;10.394;2023-10-13T06:42:14;94183.88;;;13.70;84.43
18014;BME280;9132;47.946;10.394;2023-10-13T06:44:41;94183.06;;;13.70;84.54
18014;BME280;9132;47.946;10.394;2023-10-13T06:47:12;94190.22;;;13.69;84.56
18014;BME280;9132;47.946;10.394;2023-10-13T06:49:39;94190.78;;;13.71;84.59
18014;BME280;9132;47.946;10.394;2023-10-13T06:52:08;94193.03;;;13.74;85.09
18014;BME280;9132;47.946;10.394;2023-10-13T06:54:35;94192.41;;;13.79;84.67
18014;BME280;9132;47.946;10.394;2023-10-13T06:57:02;94194.63;;;13.82;84.99
18014;BME280;9132;47.946;10.394;2023-10-13T06:59:32;94192.97;;;13.87;84.89
18014;BME280;9132;47.946;10.394;2023-10-13T07:02:02;94192.13;;;13.94;85.19
18014;BME280;9132;47.946;10.394;2023-10-13T07:04:32;94192.50;;;13.97;84.51
18014;BME280;9132;47.946;10.394;2023-10-13T07:06:59;94195.09;;;14.04;83.96
18014;BME280;9132;47.946;10.394;2023-10-13T07:09:27;94192.78;;;14.14;83.44
18014;BME280;9132;47.946;10.394;2023-10-13T07:12:21;94193.94;;;14.25;83.75
18014;BME280;9132;47.946;10.394;2023-10-13T07:14:52;94199.59;;;14.35;84.20
18014;BME280;9132;47.946;10.394;2023-10-13T07:17:23;94201.97;;;14.43;83.75
18014;BME280;9132;47.946;10.394;2023-10-13T07:19:53;94198.69;;;14.48;83.30
18014;BME280;9132;47.946;10.394;2023-10-13T07:22:21;94202.72;;;14.57;83.14
18014;BME280;9132;47.946;10.394;2023-10-13T07:24:50;94208.34;;;14.67;83.90
18014;BME280;9132;47.946;10.394;2023-10-13T07:27:18;94203.16;;;14.79;82.74
18014;BME280;9132;47.946;10.394;2023-10-13T07:29:49;94201.59;;;14.90;83.27
18014;BME280;9132;47.946;10.394;2023-10-13T07:32:22;94201.69;;;15.01;82.02
18014;BME280;9132;47.946;10.394;2023-10-13T07:34:53;94197.06;;;15.15;80.24
18014;BME280;9132;47.946;10.394;2023-10-13T07:37:21;94201.66;;;15.26;78.44
18014;BME280;9132;47.946;10.394;2023-10-13T07:39:50;94200.25;;;15.42;77.07
18014;BME280;9132;47.946;10.394;2023-10-13T07:42:17;94193.94;;;15.55;76.66
18014;BME280;9132;47.946;10.394;2023-10-13T07:44:47;94192.38;;;15.66;76.17
18014;BME280;9132;47.946;10.394;2023-10-13T07:47:14;94187.75;;;15.80;75.38
18014;BME280;9132;47.946;10.394;2023-10-13T07:49:43;94192.63;;;15.94;74.95
18014;BME280;9132;47.946;10.394;2023-10-13T07:52:15;94194.31;;;16.07;75.06
18014;BME280;9132;47.946;10.394;2023-10-13T07:54:50;94198.41;;;16.21;73.88
18014;BME280;9132;47.946;10.394;2023-10-13T07:57:25;94192.66;;;16.36;73.20
18014;BME280;9132;47.946;10.394;2023-10-13T07:59:54;94182.47;;;16.45;74.00
18014;BME280;9132;47.946;10.394;2023-10-13T08:02:32;94197.91;;;16.66;74.35
18014;BME280;9132;47.946;10.394;2023-10-13T08:05:12;94186.03;;;16.81;72.80
18014;BME280;9132;47.946;10.394;2023-10-13T08:07:45;94187.88;;;16.92;72.24
18014;BME280;9132;47.946;10.394;2023-10-13T08:10:12;94182.75;;;17.02;72.21
18014;BME280;9132;47.946;10.394;2023-10-13T08:12:41;94192.16;;;17.17;72.33
18014;BME280;9132;47.946;10.394;2023-10-13T08:15:09;94187.75;;;17.34;71.77
18014;BME280;9132;47.946;10.394;2023-10-13T08:17:46;94187.00;;;17.50;70.64
18014;BME280;9132;47.946;10.394;2023-10-13T08:20:12;94180.59;;;17.63;69.49
18014;BME280;9132;47.946;10.394;2023-10-13T08:22:42;94174.66;;;17.73;68.68
18014;BME280;9132;47.946;10.394;2023-10-13T08:25:14;94181.22;;;17.94;67.69
18014;BME280;9132;47.946;10.394;2023-10-13T08:27:50;94187.28;;;18.06;67.15
18014;BME280;9132;47.946;10.394;2023-10-13T08:30:31;94172.63;;;18.20;66.15
18014;BME280;9132;47.946;10.394;2023-10-13T08:33:08;94173.09;;;18.34;65.10
18014;BME280;9132;47.946;10.394;2023-10-13T08:35:43;94170.69;;;18.49;66.95
18014;BME280;9132;47.946;10.394;2023-10-13T08:38:19;94166.09;;;18.62;65.46
18014;BME280;9132;47.946;10.394;2023-10-13T08:40:58;94170.31;;;18.74;64.56
18014;BME280;9132;47.946;10.394;2023-10-13T08:43:42;94162.22;;;18.86;61.77
18014;BME280;9132;47.946;10.394;2023-10-13T08:46:10;94161.88;;;18.99;62.80
18014;BME280;9132;47.946;10.394;2023-10-13T08:48:52;94162.31;;;19.13;62.53
18014;BME280;9132;47.946;10.394;2023-10-13T08:51:32;94158.25;;;19.28;60.24
18014;BME280;9132;47.946;10.394;2023-10-13T08:54:12;94150.72;;;19.47;59.21
18014;BME280;9132;47.946;10.394;2023-10-13T08:56:47;94159.84;;;19.67;58.79
18014;BME280;9132;47.946;10.394;2023-10-13T08:59:21;94143.06;;;19.99;54.07
18014;BME280;9132;47.946;10.394;2023-10-13T09:01:59;94152.66;;;20.49;47.98
18014;BME280;9132;47.946;10.394;2023-10-13T09:04:42;94155.56;;;20.75;48.19
18014;BME280;9132;47.946;10.394;2023-10-13T09:07:09;94152.53;;;21.03;47.72
18014;BME280;9132;47.946;10.394;2023-10-13T09:09:47;94149.72;;;21.25;45.86
18014;BME280;9132;47.946;10.394;2023-10-13T09:12:27;94154.16;;;21.52;44.71
18014;BME280;9132;47.946;10.394;2023-10-13T09:15:06;94153.16;;;21.68;43.01
18014;BME280;9132;47.946;10.394;2023-10-13T09:17:44;94152.16;;;21.85;43.71
18014;BME280;9132;47.946;10.394;2023-10-13T09:20:18;94154.88;;;22.05;40.65
18014;BME280;9132;47.946;10.394;2023-10-13T09:22:58;94151.13;;;22.11;41.95
18014;BME280;9132;47.946;10.394;2023-10-13T09:25:34;94139.66;;;22.26;42.15
18014;BME280;9132;47.946;10.394;2023-10-13T09:28:03;94142.88;;;22.43;41.66
18014;BME280;9132;47.946;10.394;2023-10-13T09:30:42;62945.72;;;-144.37;100.00
18014;BME280;9132;47.946;10.394;2023-10-13T09:33:09;62945.72;;;-144.37;100.00
18014;BME280;9132;47.946;10.394;2023-10-13T09:35:43;62945.72;;;-144.37;100.00
18014;BME280;9132;47.946;10.394;2023-10-13T09:38:14;62945.72;;;-144.37;100.00
18014;BME280;9132;47.946;10.394;2023-10-13T09:40:41;62945.72;;;-144.37;100.00
18014;BME280;9132;47.946;10.394;2023-10-13T09:43:13;62945.72;;;-144.37;100.00
18014;BME280;9132;47.946;10.394;2023-10-13T09:45:41;62945.72;;;-144.37;100.00
18014;BME280;9132;47.946;10.394;2023-10-13T09:48:10;62945.72;;;-144.37;100.00
18014;BME280;9132;47.946;10.394;2023-10-13T09:50:43;62945.72;;;-144.37;100.00
18014;BME280;9132;47.946;10.394;2023-10-13T09:53:11;62945.72;;;-144.37;100.00
18014;BME280;9132;47.946;10.394;2023-10-13T09:55:42;62945.72;;;-144.37;100.00
18014;BME280;9132;47.946;10.394;2023-10-13T09:58:11;62945.72;;;-144.37;100.00
18014;BME280;9132;47.946;10.394;2023-10-13T10:00:43;62945.72;;;-144.37;100.00
18014;BME280;9132;47.946;10.394;2023-10-13T10:03:12;62945.72;;;-144.37;100.00
18014;BME280;9132;47.946;10.394;2023-10-13T10:05:55;62945.72;;;-144.37;100.00
18014;BME280;9132;47.946;10.394;2023-10-13T10:08:28;62945.72;;;-144.37;100.00
18014;BME280;9132;47.946;10.394;2023-10-13T10:11:07;62945.72;;;-144.37;100.00
18014;BME280;9132;47.946;10.394;2023-10-13T10:13:52;62945.72;;;-144.37;100.00
18014;BME280;9132;47.946;10.394;2023-10-13T10:16:39;62945.72;;;-144.37;100.00
18014;BME280;9132;47.946;10.394;2023-10-13T10:19:11;62945.72;;;-144.37;100.00
18014;BME280;9132;47.946;10.394;2023-10-13T10:21:38;62945.72;;;-144.37;100.00
18014;BME280;9132;47.946;10.394;2023-10-13T10:24:14;62945.72;;;-144.37;100.00
18014;BME280;9132;47.946;10.394;2023-10-13T10:26:52;62945.72;;;-144.37;100.00
18014;BME280;9132;47.946;10.394;2023-10-13T10:29:19;62945.72;;;-144.37;100.00
18014;BME280;9132;47.946;10.394;2023-10-13T10:31:47;62945.72;;;-144.37;100.00
18014;BME280;9132;47.946;10.394;2023-10-13T10:34:14;62945.72;;;-144.37;100.00
18014;BME280;9132;47.946;10.394;2023-10-13T10:36:46;62945.72;;;-144.37;100.00
18014;BME280;9132;47.946;10.394;2023-10-13T10:39:13;62945.72;;;-144.37;100.00
18014;BME280;9132;47.946;10.394;2023-10-13T10:41:40;62945.72;;;-144.37;100.00
18014;BME280;9132;47.946;10.394;2023-10-13T10:44:17;62945.72;;;-144.37;100.00
18014;BME280;9132;47.946;10.394;2023-10-13T10:46:50;62945.72;;;-144.37;100.00
18014;BME280;9132;47.946;10.394;2023-10-13T10:49:23;62945.72;;;-144.37;100.00
18014;BME280;9132;47.946;10.394;2023-10-13T10:51:58;62945.72;;;-144.37;100.00
18014;BME280;9132;47.946;10.394;2023-10-13T10:54:26;62945.72;;;-144.37;100.00
18014;BME280;9132;47.946;10.394;2023-10-13T10:56:57;62945.72;;;-144.37;100.00
18014;BME280;9132;47.946;10.394;2023-10-13T10:59:36;62945.72;;;-144.37;100.00
18014;BME280;9132;47.946;10.394;2023-10-13T11:02:05;62945.72;;;-144.37;100.00
18014;BME280;9132;47.946;10.394;2023-10-13T11:04:34;62945.72;;;-144.37;100.00
18014;BME280;9132;47.946;10.394;2023-10-13T11:07:06;62945.72;;;-144.37;100.00
18014;BME280;9132;47.946;10.394;2023-10-13T11:09:34;62945.72;;;-144.37;100.00
18014;BME280;9132;47.946;10.394;2023-10-13T11:12:10;62945.72;;;-144.37;100.00
18014;BME280;9132;47.946;10.394;2023-10-13T11:14:59;62945.72;;;-144.37;100.00
18014;BME280;9132;47.946;10.394;2023-10-13T11:17:28;62945.72;;;-144.37;100.00
18014;BME280;9132;47.946;10.394;2023-10-13T11:20:11;62945.72;;;-144.37;100.00
18014;BME280;9132;47.946;10.394;2023-10-13T11:22:51;62945.72;;;-144.37;100.00
18014;BME280;9132;47.946;10.394;2023-10-13T11:25:22;62945.72;;;-144.37;100.00
18014;BME280;9132;47.946;10.394;2023-10-13T11:27:55;62945.72;;;-144.37;100.00
18014;BME280;9132;47.946;10.394;2023-10-13T11:30:25;62945.72;;;-144.37;100.00
18014;BME280;9132;47.946;10.394;2023-10-13T11:33:03;62945.72;;;-144.37;100.00
18014;BME280;9132;47.946;10.394;2023-10-13T11:35:31;62945.72;;;-144.37;100.00
18014;BME280;9132;47.946;10.394;2023-10-13T11:38:14;62945.72;;;-144.37;100.00
18014;BME280;9132;47.946;10.394;2023-10-13T11:40:50;62945.72;;;-144.37;100.00
18014;BME280;9132;47.946;10.394;2023-10-13T11:43:38;62945.72;;;-144.37;100.00
18014;BME280;9132;47.946;10.394;2023-10-13T11:46:18;62945.72;;;-144.37;100.00
18014;BME280;9132;47.946;10.394;2023-10-13T11:49:06;62945.72;;;-144.37;100.00
18014;BME280;9132;47.946;10.394;2023-10-13T11:51:43;62945.72;;;-144.37;100.00
18014;BME280;9132;47.946;10.394;2023-10-13T11:54:11;62945.72;;;-144.37;100.00
18014;BME280;9132;47.946;10.394;2023-10-13T11:56:37;62945.72;;;-144.37;100.00
18014;BME280;9132;47.946;10.394;2023-10-13T11:59:04;62945.72;;;-144.37;100.00
18014;BME280;9132;47.946;10.394;2023-10-13T12:01:31;62945.72;;;-144.37;100.00
18014;BME280;9132;47.946;10.394;2023-10-13T12:04:13;62945.72;;;-144.37;100.00
18014;BME280;9132;47.946;10.394;2023-10-13T12:07:00;62945.72;;;-144.37;100.00
18014;BME280;9132;47.946;10.394;2023-10-13T12:09:40;62945.72;;;-144.37;100.00
18014;BME280;9132;47.946;10.394;2023-10-13T12:12:17;94142.88;;;22.43;41.66
18014;BME280;9132;47.946;10.394;2023-10-13T12:14:44;94001.50;;;25.71;31.97
18014;BME280;9132;47.946;10.394;2023-10-13T12:17:20;93985.50;;;25.75;100.00
18014;BME280;9132;47.946;10.394;2023-10-13T12:19:52;93985.50;;;25.75;32.05
18014;BME280;9132;47.946;10.394;2023-10-13T12:22:19;93979.38;;;25.88;32.44
18014;BME280;9132;47.946;10.394;2023-10-13T12:24:53;93976.09;;;25.91;32.92
18014;BME280;9132;47.946;10.394;2023-10-13T12:27:20;93980.19;;;25.88;31.73
18014;BME280;9132;47.946;10.394;2023-10-13T12:29:52;93975.81;;;25.93;32.29
18014;BME280;9132;47.946;10.394;2023-10-13T12:32:19;93973.63;;;25.95;31.04
18014;BME280;9132;47.946;10.394;2023-10-13T12:34:48;93966.31;;;25.95;31.61
18014;BME280;9132;47.946;10.394;2023-10-13T12:37:28;93955.59;;;26.04;31.68
18014;BME280;9132;47.946;10.394;2023-10-13T12:40:17;93964.53;;;26.04;30.99
18014;BME280;9132;47.946;10.394;2023-10-13T12:43:03;93957.03;;;26.01;31.75
18014;BME280;9132;47.946;10.394;2023-10-13T12:45:48;93956.72;;;26.03;31.70
18014;BME280;9132;47.946;10.394;2023-10-13T12:48:34;93945.31;;;26.06;32.33
18014;BME280;9132;47.946;10.394;2023-10-13T12:51:18;93928.44;;;26.14;32.99
18014;BME280;9132;47.946;10.394;2023-10-13T12:54:07;93929.44;;;26.18;31.84
18014;BME280;9132;47.946;10.394;2023-10-13T12:56:40;93935.16;;;26.17;32.87
18014;BME280;9132;47.946;10.394;2023-10-13T12:59:08;93927.25;;;26.20;32.40
18014;BME280;9132;47.946;10.394;2023-10-13T13:01:38;93921.94;;;26.29;33.89
18014;BME280;9132;47.946;10.394;2023-10-13T13:04:07;93936.38;;;26.38;32.57
18014;BME280;9132;47.946;10.394;2023-10-13T13:06:42;93937.16;;;26.25;32.57
18014;BME280;9132;47.946;10.394;2023-10-13T13:09:09;93929.41;;;26.04;31.82
18014;BME280;9132;47.946;10.394;2023-10-13T13:11:36;93932.19;;;25.99;31.70
18014;BME280;9132;47.946;10.394;2023-10-13T13:14:05;93922.97;;;26.00;31.64
18014;BME280;9132;47.946;10.394;2023-10-13T13:16:33;93918.47;;;25.96;31.94
18014;BME280;9132;47.946;10.394;2023-10-13T13:19:00;93913.31;;;25.94;31.65
18014;BME280;9132;47.946;10.394;2023-10-13T13:21:28;93913.06;;;25.96;32.64
18014;BME280;9132;47.946;10.394;2023-10-13T13:23:55;93915.88;;;26.04;32.58
18014;BME280;9132;47.946;10.394;2023-10-13T13:26:23;93899.06;;;26.07;32.59
18014;BME280;9132;47.946;10.394;2023-10-13T13:28:49;93901.38;;;26.14;32.32